Consulta les dades en temps real de l'estació municipal de Aiguafreda
| Hora UTC | 18:35 |
|---|---|
| Temperatura | 26.2 ºC |
| Sòl 15 cm | 25.2 ºC |
| Humitat | 72.2 % |
| Pressió | 1021.8 hPa |
| Pluja | 0.0 mm |
| Velocitat vent | 4.3 km/h |
| Direcció vent | SE |
| Temperatura (ºC) | Humitat (%) | Pressió (hPa) | Velocitat vent (km/h) | Precipitació (mm) | |||||||||||||
|---|---|---|---|---|---|---|---|---|---|---|---|---|---|---|---|---|---|
| Hora UTC | Aire | Sòl 15 cm | Humitat | Pressió | Vel. | Dir. | Vel. Max | Dir. | Intent. màx 5 min. | ||||||||
| 00:05 | 18.8 | 17.4 | 80.0 | 1022.9 | 0.0 | NNE | 0.0 | ENE | 0.0 | ||||||||
| 00:10 | 18.7 | 17.4 | 80.1 | 1022.9 | 0.0 | NNE | 0.0 | WNW | 0.0 | ||||||||
| 00:15 | 18.7 | 17.3 | 80.3 | 1022.9 | 0.0 | NNE | 0.0 | SSW | 0.0 | ||||||||
| 00:20 | 18.6 | 17.2 | 80.5 | 1023.0 | 0.0 | NNE | 0.0 | N | 0.0 | ||||||||
| 00:25 | 18.6 | 17.2 | 80.7 | 1023.0 | 0.0 | NNE | 0.0 | N | 0.0 | ||||||||
| 00:30 | 18.5 | 17.1 | 81.0 | 1023.0 | 0.0 | NNE | 0.0 | N | 0.0 | ||||||||
| 00:35 | 18.5 | 17.1 | 81.2 | 1023.0 | 0.0 | NNE | 0.0 | N | 0.0 | ||||||||
| 00:40 | 18.5 | 17.1 | 81.4 | 1023.0 | 0.0 | NNE | 0.0 | N | 0.0 | ||||||||
| 00:45 | 18.4 | 17.0 | 81.3 | 1023.0 | 0.0 | NNE | 0.0 | N | 0.0 | ||||||||
| 00:50 | 18.4 | 17.0 | 81.6 | 1022.9 | 0.0 | NNE | 0.0 | N | 0.0 | ||||||||
| 00:55 | 18.3 | 16.9 | 81.8 | 1022.9 | 0.0 | NNE | 0.0 | N | 0.0 | ||||||||
| 01:00 | 18.3 | 16.9 | 81.9 | 1022.9 | 0.0 | NNE | 0.0 | N | 0.0 | ||||||||
| 01:05 | 18.3 | 16.9 | 82.1 | 1022.9 | 0.0 | NNE | 0.0 | N | 0.0 | ||||||||
| 01:10 | 18.2 | 16.8 | 82.1 | 1022.9 | 0.0 | NNE | 0.0 | N | 0.0 | ||||||||
| 01:15 | 18.2 | 16.8 | 82.4 | 1022.9 | 0.0 | NNE | 0.0 | NNW | 0.0 | ||||||||
| 01:20 | 18.1 | 16.7 | 82.6 | 1022.9 | 0.0 | NNE | 0.0 | NNW | 0.0 | ||||||||
| 01:25 | 18.1 | 16.7 | 82.8 | 1022.9 | 0.0 | NNE | 0.0 | NNW | 0.0 | ||||||||
| 01:30 | 18.0 | 16.6 | 83.0 | 1022.9 | 0.0 | NNE | 0.0 | NNW | 0.0 | ||||||||
| 01:35 | 18.0 | 16.6 | 83.1 | 1022.9 | 0.0 | NNE | 0.0 | NNW | 0.0 | ||||||||
| 01:40 | 17.9 | 16.6 | 83.4 | 1022.9 | 0.0 | NNE | 0.0 | NNW | 0.0 | ||||||||
| 01:45 | 17.9 | 16.5 | 83.5 | 1022.9 | 0.0 | NNE | 0.0 | NNW | 0.0 | ||||||||
| 01:50 | 17.8 | 16.5 | 83.6 | 1022.8 | 0.0 | NNE | 0.0 | NNW | 0.0 | ||||||||
| 01:55 | 17.8 | 16.5 | 83.7 | 1022.9 | 0.0 | NNE | 0.0 | NNW | 0.0 | ||||||||
| 02:00 | 17.8 | 16.4 | 83.9 | 1022.9 | 0.0 | NNE | 0.0 | NNW | 0.0 | ||||||||
| 02:05 | 17.8 | 16.4 | 84.0 | 1022.9 | 0.0 | NNE | 0.0 | NNW | 0.0 | ||||||||
| 02:10 | 17.7 | 16.3 | 84.1 | 1022.9 | 0.0 | NNE | 0.0 | NNW | 0.0 | ||||||||
| 02:15 | 17.7 | 16.3 | 84.3 | 1022.9 | 0.0 | NNE | 0.0 | NNW | 0.0 | ||||||||
| 02:20 | 17.6 | 16.3 | 84.4 | 1022.9 | 0.0 | NNE | 0.0 | NNW | 0.0 | ||||||||
| 02:25 | 17.6 | 16.2 | 84.5 | 1022.8 | 0.0 | NNE | 0.0 | NNW | 0.0 | ||||||||
| 02:30 | 17.6 | 16.2 | 84.5 | 1022.8 | 0.0 | NNE | 0.0 | NW | 0.0 | ||||||||
| 02:35 | 17.6 | 16.2 | 84.5 | 1022.8 | 0.0 | NNE | 0.0 | NW | 0.0 | ||||||||
| 02:40 | 17.6 | 16.2 | 84.6 | 1022.8 | 0.0 | NNE | 0.0 | NW | 0.0 | ||||||||
| 02:45 | 17.5 | 16.1 | 84.7 | 1022.8 | 0.0 | NNE | 0.0 | NW | 0.0 | ||||||||
| 02:50 | 17.5 | 16.1 | 84.9 | 1022.8 | 0.0 | NNE | 0.0 | SE | 0.0 | ||||||||
| 02:55 | 17.5 | 16.1 | 85.1 | 1022.7 | 0.0 | NNE | 0.0 | SE | 0.0 | ||||||||
| 03:00 | 17.5 | 16.1 | 85.3 | 1022.7 | 0.0 | NNE | 0.0 | SE | 0.0 | ||||||||
| 03:05 | 17.4 | 16.0 | 85.4 | 1022.7 | 0.0 | NNE | 0.0 | ENE | 0.0 | ||||||||
| 03:10 | 17.4 | 16.0 | 85.5 | 1022.7 | 0.0 | NNE | 0.0 | NNE | 0.0 | ||||||||
| 03:15 | 17.4 | 16.0 | 85.6 | 1022.7 | 0.0 | NNE | 0.0 | NNE | 0.0 | ||||||||
| 03:20 | 17.3 | 15.9 | 85.8 | 1022.7 | 0.0 | NNE | 0.0 | NNE | 0.0 | ||||||||
| 03:25 | 17.3 | 15.9 | 85.9 | 1022.7 | 0.0 | NNE | 0.0 | NNE | 0.0 | ||||||||
| 03:30 | 17.3 | 15.9 | 86.0 | 1022.6 | 0.0 | NNE | 0.0 | NNE | 0.0 | ||||||||
| 03:35 | 17.2 | 15.8 | 86.1 | 1022.6 | 0.0 | NNE | 0.0 | NNE | 0.0 | ||||||||
| 03:40 | 17.2 | 15.8 | 86.2 | 1022.6 | 0.0 | NNE | 0.0 | NNE | 0.0 | ||||||||
| 03:45 | 17.1 | 15.7 | 86.3 | 1022.5 | 0.0 | NNE | 0.0 | NNE | 0.0 | ||||||||
| 03:50 | 17.1 | 15.7 | 86.4 | 1022.5 | 0.0 | NNE | 0.0 | NNE | 0.0 | ||||||||
| 03:55 | 17.1 | 15.7 | 86.6 | 1022.4 | 0.0 | NNE | 0.0 | NNE | 0.0 | ||||||||
| 04:00 | 17.0 | 15.6 | 86.7 | 1022.4 | 0.0 | NNE | 0.0 | NNE | 0.0 | ||||||||
| 04:05 | 17.0 | 15.6 | 86.7 | 1022.4 | 0.0 | NNE | 0.0 | NNE | 0.0 | ||||||||
| 04:10 | 17.0 | 15.6 | 86.9 | 1022.3 | 0.0 | NNE | 0.0 | NNE | 0.0 | ||||||||
| 04:15 | 16.9 | 15.5 | 87.0 | 1022.3 | 0.0 | NNE | 0.0 | NNE | 0.0 | ||||||||
| 04:20 | 16.9 | 15.5 | 87.2 | 1022.3 | 0.0 | NNE | 0.0 | NE | 0.0 | ||||||||
| 04:25 | 16.9 | 15.4 | 87.4 | 1022.3 | 0.0 | NNE | 0.0 | NE | 0.0 | ||||||||
| 04:30 | 16.9 | 15.4 | 87.6 | 1022.3 | 0.0 | NNE | 0.0 | NE | 0.0 | ||||||||
| 04:35 | 16.8 | 15.4 | 87.6 | 1022.3 | 0.0 | NNE | 0.0 | NE | 0.0 | ||||||||
| 04:40 | 16.8 | 15.4 | 87.7 | 1022.3 | 0.0 | NNE | 0.0 | NE | 0.0 | ||||||||
| 04:45 | 16.8 | 15.4 | 87.7 | 1022.4 | 0.0 | NNE | 0.0 | NE | 0.0 | ||||||||
| 04:50 | 16.8 | 15.3 | 87.7 | 1022.4 | 0.0 | NNE | 0.0 | NE | 0.0 | ||||||||
| 04:55 | 16.7 | 15.3 | 87.9 | 1022.4 | 0.0 | NNE | 0.0 | NE | 0.0 | ||||||||
| 05:00 | 16.7 | 15.3 | 88.0 | 1022.5 | 0.0 | NNE | 0.0 | NE | 0.0 | ||||||||
| 05:05 | 16.7 | 15.2 | 88.1 | 1022.5 | 0.0 | NNE | 0.0 | NE | 0.0 | ||||||||
| 05:10 | 16.7 | 15.3 | 88.1 | 1022.6 | 0.0 | NNE | 0.0 | NE | 0.0 | ||||||||
| 05:15 | 16.7 | 15.3 | 88.0 | 1022.6 | 0.0 | NNE | 0.0 | NE | 0.0 | ||||||||
| 05:20 | 16.7 | 15.2 | 88.0 | 1022.6 | 0.0 | NNE | 0.0 | NE | 0.0 | ||||||||
| 05:25 | 16.7 | 15.2 | 88.0 | 1022.7 | 0.0 | NNE | 0.0 | NE | 0.0 | ||||||||
| 05:30 | 16.7 | 15.3 | 87.9 | 1022.8 | 0.0 | NNE | 0.0 | N | 0.0 | ||||||||
| 05:35 | 16.7 | 15.3 | 87.9 | 1022.8 | 0.0 | NNE | 0.0 | N | 0.0 | ||||||||
| 05:40 | 16.7 | 15.4 | 87.8 | 1022.8 | 0.0 | NNE | 0.0 | N | 0.0 | ||||||||
| 05:45 | 16.8 | 15.4 | 87.9 | 1022.9 | 0.0 | NNE | 0.0 | N | 0.0 | ||||||||
| 05:50 | 16.8 | 15.5 | 87.7 | 1022.9 | 0.0 | NNE | 0.0 | N | 0.0 | ||||||||
| 05:55 | 16.9 | 15.6 | 87.5 | 1022.9 | 0.0 | NNE | 0.0 | N | 0.0 | ||||||||
| 06:00 | 16.9 | 15.7 | 87.4 | 1023.0 | 0.0 | NNE | 0.0 | N | 0.0 | ||||||||
| 06:05 | 17.0 | 15.8 | 87.2 | 1023.0 | 0.0 | NNE | 0.0 | N | 0.0 | ||||||||
| 06:10 | 17.1 | 15.9 | 87.0 | 1023.1 | 0.0 | NNE | 0.0 | N | 0.0 | ||||||||
| 06:15 | 17.2 | 16.1 | 86.9 | 1023.1 | 0.0 | NNE | 0.0 | SW | 0.0 | ||||||||
| 06:20 | 17.3 | 16.3 | 86.6 | 1023.1 | 0.0 | NNE | 0.0 | SSE | 0.0 | ||||||||
| 06:25 | 17.4 | 16.5 | 86.3 | 1023.1 | 0.0 | NNE | 0.0 | SSE | 0.0 | ||||||||
| 06:30 | 17.5 | 16.7 | 86.0 | 1023.2 | 0.0 | NNE | 0.0 | SE | 0.0 | ||||||||
| 06:35 | 17.7 | 16.8 | 85.6 | 1023.2 | 0.0 | NNE | 0.0 | SSE | 0.0 | ||||||||
| 06:40 | 17.9 | 17.0 | 85.2 | 1023.2 | 0.0 | NNE | 0.0 | SE | 0.0 | ||||||||
| 06:45 | 18.1 | 17.2 | 84.8 | 1023.2 | 0.0 | NNE | 0.0 | SE | 0.0 | ||||||||
| 06:50 | 18.3 | 17.5 | 84.1 | 1023.2 | 0.0 | NNE | 0.0 | SE | 0.0 | ||||||||
| 06:55 | 18.6 | 17.9 | 83.1 | 1023.1 | 0.0 | NNE | 0.0 | SSE | 0.0 | ||||||||
| 07:00 | 19.0 | 18.1 | 82.1 | 1023.1 | 0.3 | SSW | 6.1 | SSW | 0.0 | ||||||||
| 07:05 | 19.6 | 18.7 | 80.8 | 1023.0 | 0.0 | NNE | 0.0 | SSE | 0.0 | ||||||||
| 07:10 | 20.1 | 19.1 | 79.2 | 1023.0 | 0.0 | NNE | 0.0 | N | 0.0 | ||||||||
| 07:15 | 20.4 | 19.5 | 77.3 | 1023.0 | 0.0 | NNE | 0.0 | ESE | 0.0 | ||||||||
| 07:20 | 20.6 | 19.8 | 75.2 | 1023.0 | 0.0 | NNE | 0.0 | SE | 0.0 | ||||||||
| 07:25 | 20.9 | 20.1 | 74.9 | 1023.0 | 0.0 | NNE | 0.0 | SE | 0.0 | ||||||||
| 07:30 | 21.4 | 20.5 | 74.0 | 1023.0 | 0.0 | NNE | 0.0 | S | 0.0 | ||||||||
| 07:35 | 21.8 | 20.9 | 72.9 | 1022.9 | 0.0 | NNE | 0.0 | SSW | 0.0 | ||||||||
| 07:40 | 22.2 | 21.2 | 71.6 | 1022.9 | 0.0 | NNE | 0.0 | NE | 0.0 | ||||||||
| 07:45 | 23.1 | 21.7 | 68.8 | 1022.9 | 0.0 | NNE | 0.0 | NNE | 0.0 | ||||||||
| 07:50 | 23.9 | 22.1 | 65.7 | 1022.9 | 0.0 | NNE | 0.0 | NE | 0.0 | ||||||||
| 07:55 | 24.5 | 22.6 | 63.7 | 1022.9 | 0.0 | NNE | 0.0 | E | 0.0 | ||||||||
| 08:00 | 25.1 | 23.2 | 62.3 | 1022.9 | 0.0 | NNE | 0.0 | E | 0.0 | ||||||||
| 08:05 | 25.7 | 23.8 | 60.0 | 1022.9 | 0.0 | NNE | 0.0 | ESE | 0.0 | ||||||||
| 08:10 | 26.1 | 24.2 | 58.5 | 1022.9 | 0.0 | NNE | 0.0 | NE | 0.0 | ||||||||
| 08:15 | 26.3 | 25.3 | 57.1 | 1022.9 | 0.0 | NNE | 0.0 | NE | 0.0 | ||||||||
| 08:20 | 26.7 | 27.0 | 55.5 | 1022.9 | 0.0 | NNE | 0.0 | E | 0.0 | ||||||||
| 08:25 | 27.1 | 28.2 | 54.2 | 1022.8 | 0.0 | NNE | 0.0 | SE | 0.0 | ||||||||
| 08:30 | 27.4 | 29.6 | 52.7 | 1022.8 | 0.0 | NNE | 0.0 | SW | 0.0 | ||||||||
| 08:35 | 27.8 | 31.0 | 50.7 | 1022.8 | 0.0 | NNE | 0.0 | WNW | 0.0 | ||||||||
| 08:40 | 28.2 | 31.3 | 50.1 | 1022.9 | 0.0 | NNE | 0.0 | ESE | 0.0 | ||||||||
| 08:45 | 29.0 | 32.5 | 48.0 | 1022.9 | 0.0 | NNE | 0.0 | ENE | 0.0 | ||||||||
| 08:50 | 29.3 | 32.9 | 44.9 | 1022.9 | 0.1 | ESE | 8.8 | ESE | 0.0 | ||||||||
| 08:55 | 29.6 | 33.0 | 43.0 | 1022.8 | 7.2 | SE | 14.2 | SE | 0.0 | ||||||||
| 09:00 | 29.9 | 33.3 | 41.3 | 1023.0 | 7.0 | SE | 14.2 | ESE | 0.0 | ||||||||
| 09:05 | 30.0 | 33.0 | 40.8 | 1022.9 | 8.6 | SE | 14.2 | SSE | 0.0 | ||||||||
| 09:10 | 30.3 | 33.9 | 40.3 | 1022.8 | 5.0 | SSE | 14.2 | SSE | 0.0 | ||||||||
| 09:15 | 30.3 | 33.9 | 39.6 | 1022.9 | 7.2 | SSE | 14.2 | SSE | 0.0 | ||||||||
| 09:20 | 30.1 | 33.4 | 39.8 | 1023.1 | 8.9 | SE | 16.9 | SSE | 0.0 | ||||||||
| 09:25 | 30.3 | 33.7 | 39.3 | 1023.0 | 9.4 | SSE | 16.9 | SE | 0.0 | ||||||||
| 09:30 | 30.4 | 33.8 | 38.8 | 1023.0 | 9.4 | SE | 16.9 | SSE | 0.0 | ||||||||
| 09:35 | 30.8 | 34.4 | 38.1 | 1023.1 | 8.4 | ESE | 19.6 | ESE | 0.0 | ||||||||
| 09:40 | 31.1 | 34.6 | 37.2 | 1023.1 | 10.3 | SE | 16.9 | SSE | 0.0 | ||||||||
| 09:45 | 30.6 | 33.6 | 37.5 | 1022.9 | 9.5 | SSE | 19.6 | SSE | 0.0 | ||||||||
| 09:50 | 30.5 | 34.0 | 37.6 | 1023.0 | 10.7 | SSE | 19.6 | SSE | 0.0 | ||||||||
| 09:55 | 30.8 | 34.5 | 37.5 | 1023.0 | 8.3 | ESE | 19.6 | SE | 0.0 | ||||||||
| 10:00 | 31.1 | 34.5 | 37.4 | 1023.0 | 10.0 | SE | 22.3 | SE | 0.0 | ||||||||
| 10:05 | 31.0 | 34.3 | 37.3 | 1022.9 | 11.9 | SE | 25.0 | SE | 0.0 | ||||||||
| 10:10 | 30.8 | 34.7 | 37.5 | 1022.9 | 9.8 | SSE | 22.3 | SSW | 0.0 | ||||||||
| 10:15 | 31.1 | 34.7 | 37.1 | 1022.8 | 9.2 | SE | 19.6 | SE | 0.0 | ||||||||
| 10:20 | 31.3 | 34.9 | 36.4 | 1022.8 | 9.2 | SSE | 22.3 | S | 0.0 | ||||||||
| 10:25 | 31.4 | 35.7 | 36.4 | 1022.8 | 8.2 | SSE | 16.9 | SSE | 0.0 | ||||||||
| 10:30 | 32.0 | 35.9 | 35.4 | 1022.8 | 11.9 | SE | 22.3 | SSE | 0.0 | ||||||||
| 10:35 | 31.6 | 35.4 | 36.1 | 1022.8 | 11.6 | SSE | 22.3 | S | 0.0 | ||||||||
| 10:40 | 31.4 | 35.8 | 36.6 | 1022.7 | 8.4 | SSE | 16.9 | SW | 0.0 | ||||||||
| 10:45 | 31.6 | 35.4 | 36.4 | 1022.5 | 12.1 | SE | 22.3 | SSE | 0.0 | ||||||||
| 10:50 | 31.7 | 35.2 | 35.9 | 1022.5 | 11.1 | SE | 19.6 | ESE | 0.0 | ||||||||
| 10:55 | 31.8 | 35.3 | 36.6 | 1022.5 | 8.0 | SSE | 22.3 | ESE | 0.0 | ||||||||
| 11:00 | 32.3 | 35.9 | 35.6 | 1022.4 | 10.1 | S | 22.3 | SSE | 0.0 | ||||||||
| 11:05 | 31.8 | 35.3 | 36.2 | 1022.2 | 9.7 | SSE | 22.3 | SSE | 0.0 | ||||||||
| 11:10 | 31.7 | 35.7 | 36.4 | 1022.3 | 9.9 | SSE | 22.3 | SSE | 0.0 | ||||||||
| 11:15 | 31.7 | 35.4 | 36.3 | 1022.3 | 11.0 | SSE | 19.6 | SSE | 0.0 | ||||||||
| 11:20 | 32.0 | 36.1 | 36.2 | 1022.3 | 10.9 | SE | 22.3 | SE | 0.0 | ||||||||
| 11:25 | 32.0 | 35.1 | 35.8 | 1022.2 | 11.5 | SE | 25.0 | SE | 0.0 | ||||||||
| 11:30 | 32.1 | 35.7 | 36.4 | 1022.2 | 12.0 | SE | 22.3 | SE | 0.0 | ||||||||
| 11:35 | 32.1 | 35.8 | 36.6 | 1022.1 | 9.8 | SE | 22.3 | SE | 0.0 | ||||||||
| 11:40 | 32.4 | 36.3 | 36.6 | 1022.1 | 9.5 | SSE | 19.6 | S | 0.0 | ||||||||
| 11:45 | 32.4 | 36.1 | 36.7 | 1022.0 | 11.7 | SE | 25.0 | SE | 0.0 | ||||||||
| 11:50 | 32.7 | 37.1 | 36.6 | 1022.1 | 9.1 | S | 16.9 | SSE | 0.0 | ||||||||
| 11:55 | 32.7 | 36.5 | 36.8 | 1022.0 | 9.9 | SE | 25.0 | SE | 0.0 | ||||||||
| 12:00 | 33.0 | 37.0 | 36.6 | 1021.9 | 11.1 | SSE | 22.3 | S | 0.0 | ||||||||
| 12:05 | 32.8 | 36.6 | 37.1 | 1021.8 | 12.0 | SE | 22.3 | SE | 0.0 | ||||||||
| 12:10 | 32.6 | 36.2 | 37.6 | 1021.9 | 13.6 | SSE | 22.3 | SSE | 0.0 | ||||||||
| 12:15 | 32.4 | 36.1 | 38.2 | 1021.9 | 13.0 | SSE | 22.3 | SSE | 0.0 | ||||||||
| 12:20 | 31.9 | 35.6 | 39.1 | 1021.8 | 13.3 | SSE | 25.0 | S | 0.0 | ||||||||
| 12:25 | 32.3 | 36.3 | 38.7 | 1021.9 | 13.6 | SE | 27.7 | ESE | 0.0 | ||||||||
| 12:30 | 32.6 | 36.3 | 37.7 | 1021.8 | 12.9 | SSE | 25.0 | SSE | 0.0 | ||||||||
| 12:35 | 32.5 | 36.1 | 37.7 | 1021.8 | 12.6 | SSE | 27.7 | S | 0.0 | ||||||||
| 12:40 | 32.5 | 36.0 | 37.5 | 1021.8 | 12.9 | SSE | 22.3 | SE | 0.0 | ||||||||
| 12:45 | 32.8 | 36.6 | 36.9 | 1021.8 | 12.1 | SE | 25.0 | SSE | 0.0 | ||||||||
| 12:50 | 32.8 | 36.5 | 36.5 | 1021.8 | 11.5 | SSE | 22.3 | SSE | 0.0 | ||||||||
| 12:55 | 32.5 | 35.9 | 37.0 | 1021.8 | 13.0 | SE | 27.7 | ESE | 0.0 | ||||||||
| 13:00 | 32.7 | 36.6 | 36.8 | 1021.8 | 11.0 | SSE | 22.3 | SSE | 0.0 | ||||||||
| 13:05 | 32.8 | 36.3 | 36.6 | 1021.7 | 11.3 | SSE | 19.6 | SSE | 0.0 | ||||||||
| 13:10 | 32.7 | 36.1 | 36.8 | 1021.7 | 12.3 | SSE | 22.3 | S | 0.0 | ||||||||
| 13:15 | 32.5 | 36.0 | 37.2 | 1021.6 | 13.8 | SE | 25.0 | ESE | 0.0 | ||||||||
| 13:20 | 32.8 | 36.4 | 36.8 | 1021.8 | 12.2 | SE | 25.0 | ESE | 0.0 | ||||||||
| 13:25 | 32.8 | 36.1 | 36.9 | 1021.7 | 11.9 | SE | 22.3 | SE | 0.0 | ||||||||
| 13:30 | 32.8 | 36.3 | 37.1 | 1021.7 | 11.5 | SSE | 25.0 | SSW | 0.0 | ||||||||
| 13:35 | 32.8 | 36.4 | 37.4 | 1021.7 | 8.4 | SSE | 16.9 | SE | 0.0 | ||||||||
| 13:40 | 32.6 | 35.8 | 37.7 | 1021.5 | 14.1 | SE | 27.7 | SE | 0.0 | ||||||||
| 13:45 | 32.4 | 35.9 | 38.4 | 1021.7 | 14.5 | SE | 27.7 | SE | 0.0 | ||||||||
| 13:50 | 32.3 | 35.5 | 39.0 | 1021.6 | 11.9 | SSE | 27.7 | SSE | 0.0 | ||||||||
| 13:55 | 32.2 | 35.5 | 39.8 | 1021.6 | 12.9 | SSE | 27.7 | SSE | 0.0 | ||||||||
| 14:00 | 32.1 | 35.4 | 40.9 | 1021.5 | 13.2 | SE | 27.7 | ESE | 0.0 | ||||||||
| 14:05 | 32.3 | 35.8 | 41.6 | 1021.4 | 12.1 | SSE | 22.3 | SE | 0.0 | ||||||||
| 14:10 | 32.3 | 35.8 | 42.4 | 1021.5 | 11.5 | SSE | 22.3 | SSW | 0.0 | ||||||||
| 14:15 | 32.1 | 35.5 | 43.8 | 1021.3 | 10.9 | SSE | 25.0 | SSE | 0.0 | ||||||||
| 14:20 | 32.2 | 35.4 | 44.4 | 1021.4 | 11.2 | SE | 22.3 | SSE | 0.0 | ||||||||
| 14:25 | 32.1 | 35.1 | 45.2 | 1021.5 | 12.0 | SSE | 25.0 | S | 0.0 | ||||||||
| 14:30 | 31.9 | 34.5 | 46.2 | 1021.4 | 13.4 | SSE | 25.0 | SSE | 0.0 | ||||||||
| 14:35 | 31.7 | 34.7 | 47.3 | 1021.4 | 13.4 | SE | 27.7 | SSE | 0.0 | ||||||||
| 14:40 | 31.7 | 34.8 | 47.6 | 1021.4 | 12.4 | SE | 22.3 | SSE | 0.0 | ||||||||
| 14:45 | 31.5 | 34.1 | 48.4 | 1021.4 | 15.8 | SSE | 27.7 | SSE | 0.0 | ||||||||
| 14:50 | 31.3 | 34.0 | 49.8 | 1021.4 | 12.4 | SSE | 25.0 | SE | 0.0 | ||||||||
| 14:55 | 31.2 | 33.9 | 50.5 | 1021.4 | 11.5 | SE | 27.7 | SSE | 0.0 | ||||||||
| 15:00 | 31.1 | 33.5 | 51.4 | 1021.4 | 15.2 | SSE | 27.7 | S | 0.0 | ||||||||
| 15:05 | 31.1 | 33.8 | 51.5 | 1021.3 | 9.0 | SE | 25.0 | SE | 0.0 | ||||||||
| 15:10 | 31.4 | 33.9 | 50.8 | 1021.3 | 12.2 | SE | 22.3 | ESE | 0.0 | ||||||||
| 15:15 | 31.1 | 33.6 | 51.6 | 1021.2 | 12.7 | SSE | 22.3 | SSE | 0.0 | ||||||||
| 15:20 | 31.0 | 33.0 | 52.0 | 1021.2 | 13.7 | SSE | 22.3 | SSE | 0.0 | ||||||||
| 15:25 | 30.9 | 33.0 | 52.4 | 1021.2 | 12.3 | SSE | 22.3 | SSE | 0.0 | ||||||||
| 15:30 | 31.1 | 33.3 | 52.0 | 1021.2 | 12.6 | SSE | 25.0 | SE | 0.0 | ||||||||
| 15:35 | 31.1 | 33.4 | 52.6 | 1021.2 | 10.7 | SSE | 22.3 | SSE | 0.0 | ||||||||
| 15:40 | 30.9 | 33.1 | 54.1 | 1021.3 | 12.0 | SSE | 22.3 | SSE | 0.0 | ||||||||
| 15:45 | 30.5 | 32.7 | 55.5 | 1021.3 | 12.3 | SE | 22.3 | SE | 0.0 | ||||||||
| 15:50 | 30.7 | 32.9 | 55.5 | 1021.2 | 12.1 | SE | 25.0 | SSE | 0.0 | ||||||||
| 15:55 | 30.4 | 32.3 | 56.7 | 1021.1 | 8.5 | SSE | 19.6 | SSE | 0.0 | ||||||||
| 16:00 | 30.5 | 32.2 | 56.3 | 1021.2 | 10.3 | SE | 25.0 | SSE | 0.0 | ||||||||
| 16:05 | 30.3 | 31.9 | 56.7 | 1021.2 | 8.7 | SE | 22.3 | SE | 0.0 | ||||||||
| 16:10 | 30.3 | 31.6 | 56.4 | 1021.1 | 8.4 | SSE | 19.6 | SSE | 0.0 | ||||||||
| 16:15 | 30.1 | 31.3 | 57.1 | 1021.1 | 12.8 | SSE | 22.3 | SSE | 0.0 | ||||||||
| 16:20 | 29.6 | 30.9 | 58.5 | 1021.2 | 11.2 | SSE | 27.7 | SSW | 0.0 | ||||||||
| 16:25 | 29.7 | 31.3 | 59.0 | 1021.3 | 12.1 | SE | 27.7 | SE | 0.0 | ||||||||
| 16:30 | 29.7 | 30.8 | 59.1 | 1021.2 | 12.4 | SSE | 19.6 | SE | 0.0 | ||||||||
| 16:35 | 29.3 | 30.4 | 60.6 | 1021.3 | 10.4 | SSE | 22.3 | SSE | 0.0 | ||||||||
| 16:40 | 29.3 | 30.4 | 60.0 | 1021.2 | 10.9 | SE | 22.3 | ESE | 0.0 | ||||||||
| 16:45 | 29.2 | 30.1 | 60.6 | 1021.2 | 9.8 | SSE | 16.9 | ESE | 0.0 | ||||||||
| 16:50 | 29.1 | 30.0 | 60.8 | 1021.4 | 12.1 | SSE | 22.3 | S | 0.0 | ||||||||
| 16:55 | 28.9 | 29.9 | 61.0 | 1021.4 | 8.7 | SSE | 16.9 | SSE | 0.0 | ||||||||
| 17:00 | 28.9 | 29.8 | 61.0 | 1021.3 | 10.0 | SSE | 22.3 | SSE | 0.0 | ||||||||
| 17:05 | 28.7 | 29.6 | 61.5 | 1021.3 | 10.1 | SSE | 16.9 | SSW | 0.0 | ||||||||
| 17:10 | 28.6 | 29.4 | 61.8 | 1021.3 | 11.6 | SSE | 22.3 | SSE | 0.0 | ||||||||
| 17:15 | 28.2 | 28.9 | 63.0 | 1021.3 | 11.7 | SSE | 19.6 | SE | 0.0 | ||||||||
| 17:20 | 28.1 | 28.3 | 63.4 | 1021.4 | 9.1 | SSE | 16.9 | SE | 0.0 | ||||||||
| 17:25 | 27.9 | 27.8 | 64.5 | 1021.4 | 9.7 | SSE | 19.6 | SSE | 0.0 | ||||||||
| 17:30 | 27.8 | 27.5 | 65.7 | 1021.4 | 8.9 | S | 19.6 | S | 0.0 | ||||||||
| 17:35 | 27.6 | 27.1 | 66.7 | 1021.4 | 7.9 | S | 16.9 | SW | 0.0 | ||||||||
| 17:40 | 27.5 | 27.0 | 67.3 | 1021.4 | 6.5 | S | 16.9 | SSE | 0.0 | ||||||||
| 17:45 | 27.4 | 26.7 | 67.9 | 1021.4 | 7.4 | S | 16.9 | SSE | 0.0 | ||||||||
| 17:50 | 27.3 | 26.6 | 68.0 | 1021.5 | 6.8 | S | 16.9 | SSW | 0.0 | ||||||||
| 17:55 | 27.1 | 26.4 | 68.6 | 1021.5 | 6.8 | S | 16.9 | SSW | 0.0 | ||||||||
| 18:00 | 27.0 | 26.3 | 69.2 | 1021.5 | 7.7 | S | 14.2 | S | 0.0 | ||||||||
| 18:05 | 26.9 | 26.1 | 69.7 | 1021.5 | 5.9 | S | 14.2 | WSW | 0.0 | ||||||||
| 18:10 | 26.8 | 26.0 | 70.1 | 1021.6 | 2.1 | S | 11.5 | SSW | 0.0 | ||||||||
| 18:15 | 26.7 | 25.9 | 70.5 | 1021.6 | 4.7 | SW | 14.2 | WSW | 0.0 | ||||||||
| 18:20 | 26.6 | 25.7 | 71.0 | 1021.7 | 2.5 | SSW | 11.5 | S | 0.0 | ||||||||
| 18:25 | 26.5 | 25.6 | 71.3 | 1021.7 | 0.0 | NNE | 0.0 | SW | 0.0 | ||||||||
| 18:30 | 26.4 | 25.4 | 71.8 | 1021.8 | 0.3 | SE | 6.1 | ESE | 0.0 | ||||||||
| 18:35 | 26.2 | 25.2 | 72.2 | 1021.8 | 4.3 | SE | 11.5 | SSE | 0.0 | ||||||||
| Màxima | 33.0 | 37.1 | 88.1 | 1023.2 | 15.8 | SSE | 27.7 | SE | 0.0 | ||||||||
| Mínima | 16.7 | 15.2 | 35.4 | 1021.1 | |||||||||||||
| Total | 0.0 | ||||||||||||||||